Time,TemperatureF,DewpointF,PressureIn,WindDirection,WindDirectionDegrees,WindSpeedMPH,WindSpeedGustMPH,Humidity,HourlyPrecipIn,Conditions,Clouds,dailyrainin,SolarRadiationWatts/m^2,SoftwareType,DateUTC
2013-01-20 00:03:00,34.7,32.0,30.34,WNW,290,3.4,3.4,90,0.00,,---,0.00,0.00,VWS V14.01,2013-01-20 08:03:00,
2013-01-20 00:08:00,34.5,31.8,30.33,WNW,289,2.5,2.5,90,0.00,,---,0.00,0.00,VWS V14.01,2013-01-20 08:08:00,
2013-01-20 00:13:00,34.5,31.8,30.33,WNW,289,4.7,4.7,90,0.00,,---,0.00,0.00,VWS V14.01,2013-01-20 08:13:00,
2013-01-20 00:18:00,34.3,31.6,30.34,WNW,292,3.4,3.8,90,0.00,,---,0.00,1.07,VWS V14.01,2013-01-20 08:18:00,
2013-01-20 00:23:00,34.3,31.7,30.34,NW,306,4.0,4.0,90,0.00,,---,0.00,1.98,VWS V14.01,2013-01-20 08:23:00,
2013-01-20 00:28:00,34.3,31.7,30.34,West,278,2.5,3.1,90,0.00,,---,0.00,0.00,VWS V14.01,2013-01-20 08:28:00,
2013-01-20 00:33:00,34.5,31.8,30.34,NW,316,3.6,4.0,90,0.00,,---,0.00,0.00,VWS V14.01,2013-01-20 08:33:00,
2013-01-20 00:38:00,34.2,31.4,30.34,NW,314,3.4,3.4,90,0.00,,---,0.00,0.00,VWS V14.01,2013-01-20 08:38:00,
2013-01-20 00:43:00,34.0,31.3,30.34,NW,313,2.2,2.2,90,0.00,,---,0.00,0.00,VWS V14.01,2013-01-20 08:43:00,
2013-01-20 00:48:00,33.8,31.1,30.34,WNW,299,4.0,4.0,90,0.00,,---,0.00,0.00,VWS V14.01,2013-01-20 08:48:00,
2013-01-20 00:53:00,33.8,31.1,30.34,West,274,4.3,4.3,90,0.00,,---,0.00,3.21,VWS V14.01,2013-01-20 08:53:00,
2013-01-20 00:58:00,33.6,31.0,30.34,NNW,333,3.8,3.8,90,0.00,,---,0.00,2.21,VWS V14.01,2013-01-20 08:58:00,
2013-01-20 01:03:00,33.4,30.8,30.34,WNW,301,2.9,2.9,90,0.00,,---,0.00,3.74,VWS V14.01,2013-01-20 09:03:00,
2013-01-20 01:08:00,33.6,31.0,30.34,NW,308,3.1,3.4,90,0.00,,---,0.00,0.00,VWS V14.01,2013-01-20 09:08:00,
2013-01-20 01:13:00,33.8,31.2,30.34,NW,317,1.3,1.3,90,0.00,,---,0.00,0.92,VWS V14.01,2013-01-20 09:13:00,
2013-01-20 01:18:00,34.0,31.3,30.34,West,279,2.7,2.7,90,0.00,,---,0.00,2.98,VWS V14.01,2013-01-20 09:18:00,
2013-01-20 01:23:00,34.0,31.3,30.35,NW,314,0.7,2.7,90,0.00,,---,0.00,0.00,VWS V14.01,2013-01-20 09:23:00,
2013-01-20 01:28:00,34.2,31.5,30.34,NW,310,4.7,4.7,90,0.00,,---,0.00,0.84,VWS V14.01,2013-01-20 09:28:00,
2013-01-20 01:33:00,34.0,31.4,30.34,WNW,303,4.5,4.5,90,0.00,,---,0.00,0.00,VWS V14.01,2013-01-20 09:33:00,
2013-01-20 01:38:00,34.0,31.3,30.34,NW,309,4.9,5.8,90,0.00,,---,0.00,1.45,VWS V14.01,2013-01-20 09:38:00,
2013-01-20 01:43:00,33.8,31.1,30.34,WNW,298,4.0,4.0,90,0.00,,---,0.00,2.44,VWS V14.01,2013-01-20 09:43:00,
2013-01-20 01:48:00,33.8,31.2,30.34,NW,316,3.1,3.6,90,0.00,,---,0.00,0.00,VWS V14.01,2013-01-20 09:48:00,
2013-01-20 01:53:00,33.6,31.0,30.34,NNW,332,0.9,0.9,90,0.00,,---,0.00,4.27,VWS V14.01,2013-01-20 09:53:00,
2013-01-20 01:58:00,33.6,31.0,30.35,WNW,299,1.8,2.9,90,0.00,,---,0.00,3.51,VWS V14.01,2013-01-20 09:58:00,
2013-01-20 02:03:00,33.4,30.8,30.35,NW,311,3.1,3.1,90,0.00,,---,0.00,2.98,VWS V14.01,2013-01-20 10:03:00,
2013-01-20 02:08:00,33.4,30.8,30.35,WNW,291,2.2,4.5,90,0.00,,---,0.00,1.07,VWS V14.01,2013-01-20 10:08:00,
2013-01-20 02:13:00,33.6,31.0,30.35,NNW,340,1.1,1.1,90,0.00,,---,0.00,0.00,VWS V14.01,2013-01-20 10:13:00,
2013-01-20 02:18:00,33.6,31.0,30.35,WNW,301,4.9,4.9,90,0.00,,---,0.00,0.38,VWS V14.01,2013-01-20 10:18:00,
2013-01-20 02:23:00,33.4,30.9,30.35,NW,320,2.5,2.5,90,0.00,,---,0.00,0.00,VWS V14.01,2013-01-20 10:23:00,
2013-01-20 02:28:00,33.4,30.9,30.35,WNW,299,4.5,4.9,90,0.00,,---,0.00,0.00,VWS V14.01,2013-01-20 10:28:00,
2013-01-20 02:33:00,33.6,31.0,30.35,NW,312,3.4,3.4,90,0.00,,---,0.00,4.96,VWS V14.01,2013-01-20 10:33:00,
2013-01-20 02:38:00,33.4,30.9,30.36,WNW,303,4.3,5.1,90,0.00,,---,0.00,1.53,VWS V14.01,2013-01-20 10:38:00,
2013-01-20 02:43:00,33.4,30.8,30.36,WNW,292,5.1,5.1,90,0.00,,---,0.00,0.00,VWS V14.01,2013-01-20 10:43:00,
2013-01-20 02:48:00,33.4,30.9,30.35,NE,44,0.7,4.3,90,0.00,,---,0.00,0.00,VWS V14.01,2013-01-20 10:48:00,
2013-01-20 02:53:00,33.4,30.9,30.35,WNW,303,2.9,2.9,90,0.00,,---,0.00,0.00,VWS V14.01,2013-01-20 10:53:00,
2013-01-20 02:58:00,33.4,30.9,30.35,WNW,287,5.4,5.4,90,0.00,,---,0.00,0.00,VWS V14.01,2013-01-20 10:58:00,
2013-01-20 03:03:00,33.4,30.9,30.35,NW,308,4.0,4.0,90,0.00,,---,0.00,0.00,VWS V14.01,2013-01-20 11:03:00,
2013-01-20 03:08:00,33.4,30.8,30.35,NW,313,4.5,4.5,90,0.00,,---,0.00,0.00,VWS V14.01,2013-01-20 11:08:00,
2013-01-20 03:13:00,33.3,30.7,30.35,WNW,291,3.6,3.6,90,0.00,,---,0.00,0.00,VWS V14.01,2013-01-20 11:13:00,
2013-01-20 03:18:00,33.4,30.9,30.35,NW,319,4.0,4.0,90,0.00,,---,0.00,0.00,VWS V14.01,2013-01-20 11:18:00,
2013-01-20 03:23:00,33.4,30.9,30.35,NW,321,2.7,4.0,90,0.00,,---,0.00,0.00,VWS V14.01,2013-01-20 11:23:00,
2013-01-20 03:28:00,33.4,30.9,30.35,WNW,301,5.1,5.1,90,0.00,,---,0.00,0.00,VWS V14.01,2013-01-20 11:28:00,
2013-01-20 03:33:00,33.4,30.9,30.35,NNW,332,1.3,2.9,90,0.00,,---,0.00,0.00,VWS V14.01,2013-01-20 11:33:00,
2013-01-20 03:38:00,33.6,31.1,30.35,NNW,337,2.2,2.2,90,0.00,,---,0.00,0.00,VWS V14.01,2013-01-20 11:38:00,
2013-01-20 03:43:00,33.6,31.1,30.35,WNW,293,3.1,3.1,90,0.00,,---,0.00,0.00,VWS V14.01,2013-01-20 11:43:00,
2013-01-20 03:48:00,33.4,30.9,30.35,WNW,303,5.4,5.4,90,0.00,,---,0.00,0.00,VWS V14.01,2013-01-20 11:48:00,
2013-01-20 03:53:00,33.3,30.6,30.35,NW,320,2.7,2.7,90,0.00,,---,0.00,1.45,VWS V14.01,2013-01-20 11:53:00,
2013-01-20 03:58:00,32.9,30.3,30.35,NW,308,5.8,7.6,90,0.00,,---,0.00,0.46,VWS V14.01,2013-01-20 11:58:00,
2013-01-20 04:03:00,32.9,30.3,30.34,WNW,301,5.1,5.1,90,0.00,,---,0.00,0.00,VWS V14.01,2013-01-20 12:03:00,
2013-01-20 04:08:00,32.9,30.4,30.34,NW,315,3.6,6.5,90,0.00,,---,0.00,0.00,VWS V14.01,2013-01-20 12:08:00,
2013-01-20 04:13:00,32.9,30.4,30.34,NW,310,3.4,4.9,90,0.00,,---,0.00,0.92,VWS V14.01,2013-01-20 12:13:00,
2013-01-20 04:18:00,32.9,30.3,30.34,NW,311,3.4,5.6,90,0.00,,---,0.00,0.00,VWS V14.01,2013-01-20 12:18:00,
2013-01-20 04:23:00,32.9,30.4,30.34,NW,322,4.7,4.7,90,0.00,,---,0.00,0.00,VWS V14.01,2013-01-20 12:23:00,
2013-01-20 04:28:00,32.9,30.4,30.34,WNW,294,3.4,6.5,90,0.00,,---,0.00,4.27,VWS V14.01,2013-01-20 12:28:00,
2013-01-20 04:33:00,32.7,30.2,30.34,WNW,300,5.1,6.7,90,0.00,,---,0.00,0.00,VWS V14.01,2013-01-20 12:33:00,
2013-01-20 04:38:00,32.7,30.2,30.34,NW,312,4.3,4.3,90,0.00,,---,0.00,0.00,VWS V14.01,2013-01-20 12:38:00,
2013-01-20 04:43:00,32.7,30.2,30.34,NW,315,5.8,5.8,90,0.00,,---,0.00,0.00,VWS V14.01,2013-01-20 12:43:00,
2013-01-20 04:48:00,32.7,30.2,30.34,NW,316,5.4,6.5,90,0.00,,---,0.00,0.00,VWS V14.01,2013-01-20 12:48:00,
2013-01-20 04:53:00,32.9,30.4,30.34,NW,324,3.8,3.8,90,0.00,,---,0.00,0.00,VWS V14.01,2013-01-20 12:53:00,
2013-01-20 04:58:00,33.1,30.6,30.34,NW,312,3.8,3.8,90,0.00,,---,0.00,0.00,VWS V14.01,2013-01-20 12:58:00,
2013-01-20 05:03:00,33.3,30.8,30.34,NW,315,4.5,4.5,90,0.00,,---,0.00,0.00,VWS V14.01,2013-01-20 13:03:00,
2013-01-20 05:08:00,33.3,30.8,30.34,NW,311,2.5,4.9,90,0.00,,---,0.00,0.84,VWS V14.01,2013-01-20 13:08:00,
2013-01-20 05:13:00,33.4,30.9,30.34,NW,310,3.6,3.6,90,0.00,,---,0.00,0.00,VWS V14.01,2013-01-20 13:13:00,
2013-01-20 05:18:00,33.4,30.9,30.34,NW,307,2.9,2.9,90,0.00,,---,0.00,0.00,VWS V14.01,2013-01-20 13:18:00,
2013-01-20 05:23:00,33.4,30.9,30.34,NW,317,4.3,4.3,90,0.00,,---,0.00,0.00,VWS V14.01,2013-01-20 13:23:00,
2013-01-20 05:28:00,33.4,30.9,30.34,WNW,294,4.9,4.9,90,0.00,,---,0.00,3.43,VWS V14.01,2013-01-20 13:28:00,
2013-01-20 05:33:00,33.3,30.7,30.34,WNW,285,4.7,4.7,90,0.00,,---,0.00,0.00,VWS V14.01,2013-01-20 13:33:00,
2013-01-20 05:38:00,33.1,30.5,30.34,NW,314,5.6,5.6,90,0.00,,---,0.00,0.38,VWS V14.01,2013-01-20 13:38:00,
2013-01-20 05:43:00,32.9,30.4,30.34,WNW,299,4.5,4.5,90,0.00,,---,0.00,0.92,VWS V14.01,2013-01-20 13:43:00,
2013-01-20 05:48:00,32.7,30.2,30.34,WNW,294,4.9,4.9,90,0.00,,---,0.00,1.91,VWS V14.01,2013-01-20 13:48:00,
2013-01-20 05:53:00,32.7,30.2,30.34,NW,310,3.8,3.8,90,0.00,,---,0.00,0.00,VWS V14.01,2013-01-20 13:53:00,
2013-01-20 05:58:00,32.7,30.2,30.34,NW,321,4.0,4.0,90,0.00,,---,0.00,3.05,VWS V14.01,2013-01-20 13:58:00,
2013-01-20 06:03:00,32.5,30.0,30.33,NW,308,4.9,4.9,90,0.00,,---,0.00,0.00,VWS V14.01,2013-01-20 14:03:00,
2013-01-20 06:08:00,32.7,30.2,30.33,NW,322,3.1,4.9,90,0.00,,---,0.00,3.74,VWS V14.01,2013-01-20 14:08:00,
2013-01-20 06:13:00,32.7,30.2,30.33,WNW,303,6.5,6.5,90,0.00,,---,0.00,0.00,VWS V14.01,2013-01-20 14:13:00,
2013-01-20 06:18:00,32.9,30.4,30.33,NW,308,5.1,6.0,90,0.00,,---,0.00,0.00,VWS V14.01,2013-01-20 14:18:00,
2013-01-20 06:23:00,33.1,30.7,30.33,NW,314,1.6,2.5,91,0.00,,---,0.00,0.00,VWS V14.01,2013-01-20 14:23:00,
2013-01-20 06:28:00,33.3,30.8,30.34,NNW,340,0.9,2.7,91,0.00,,---,0.00,0.92,VWS V14.01,2013-01-20 14:28:00,
2013-01-20 06:33:00,33.3,30.8,30.33,NW,313,2.0,2.0,91,0.00,,---,0.00,0.00,VWS V14.01,2013-01-20 14:33:00,
2013-01-20 06:38:00,33.3,30.8,30.33,WNW,302,5.6,5.6,90,0.00,,---,0.00,0.61,VWS V14.01,2013-01-20 14:38:00,
2013-01-20 06:43:00,33.3,30.8,30.33,NW,320,2.9,4.7,90,0.00,,---,0.00,0.00,VWS V14.01,2013-01-20 14:43:00,
2013-01-20 06:48:00,33.4,30.9,30.33,WNW,302,4.7,5.8,90,0.00,,---,0.00,0.00,VWS V14.01,2013-01-20 14:48:00,
2013-01-20 06:53:00,33.1,30.6,30.33,West,273,4.5,4.5,90,0.00,,---,0.00,2.29,VWS V14.01,2013-01-20 14:53:00,
2013-01-20 06:58:00,33.1,30.5,30.33,NW,304,4.0,4.5,90,0.00,,---,0.00,0.00,VWS V14.01,2013-01-20 14:58:00,
2013-01-20 07:03:00,33.1,30.6,30.33,NW,316,6.0,6.0,90,0.00,,---,0.00,0.00,VWS V14.01,2013-01-20 15:03:00,
2013-01-20 07:08:00,33.3,30.8,30.33,WNW,295,4.0,4.0,90,0.00,,---,0.00,0.00,VWS V14.01,2013-01-20 15:08:00,
2013-01-20 07:13:00,33.1,30.5,30.33,NW,304,5.1,5.1,90,0.00,,---,0.00,0.00,VWS V14.01,2013-01-20 15:13:00,
2013-01-20 07:18:00,33.1,30.6,30.33,NW,312,3.8,4.0,90,0.00,,---,0.00,0.00,VWS V14.01,2013-01-20 15:18:00,
2013-01-20 07:23:00,33.3,30.8,30.33,NNW,340,2.2,2.2,90,0.00,,---,0.00,1.14,VWS V14.01,2013-01-20 15:23:00,
2013-01-20 07:28:00,33.3,30.8,30.33,NW,309,3.4,3.6,90,0.00,,---,0.00,0.00,VWS V14.01,2013-01-20 15:28:00,
2013-01-20 07:33:00,33.6,31.1,30.33,NW,324,3.6,4.3,90,0.00,,---,0.00,1.45,VWS V14.01,2013-01-20 15:33:00,
2013-01-20 07:38:00,33.3,30.8,30.34,NW,305,3.8,4.3,90,0.00,,---,0.00,0.38,VWS V14.01,2013-01-20 15:38:00,
2013-01-20 07:43:00,33.4,31.0,30.34,NW,322,2.0,2.0,90,0.00,,---,0.00,0.00,VWS V14.01,2013-01-20 15:43:00,
2013-01-20 07:48:00,33.3,30.8,30.34,NW,305,3.1,3.1,90,0.00,,---,0.00,0.00,VWS V14.01,2013-01-20 15:48:00,
2013-01-20 07:53:00,33.6,31.1,30.34,WNW,300,3.8,3.8,90,0.00,,---,0.00,0.00,VWS V14.01,2013-01-20 15:53:00,
2013-01-20 07:58:00,33.4,30.9,30.34,WNW,285,2.5,3.6,90,0.00,,---,0.00,2.75,VWS V14.01,2013-01-20 15:58:00,
2013-01-20 08:03:00,33.6,31.1,30.34,NNW,340,1.6,1.6,90,0.00,,---,0.00,0.23,VWS V14.01,2013-01-20 16:03:00,
2013-01-20 08:08:00,33.8,31.3,30.34,NW,324,1.8,1.8,90,0.00,,---,0.00,2.06,VWS V14.01,2013-01-20 16:08:00,
2013-01-20 08:13:00,33.8,31.2,30.34,WNW,301,4.3,4.3,90,0.00,,---,0.00,7.78,VWS V14.01,2013-01-20 16:13:00,
2013-01-20 08:18:00,34.0,31.5,30.34,NW,322,3.1,3.1,90,0.00,,---,0.00,5.34,VWS V14.01,2013-01-20 16:18:00,
2013-01-20 08:23:00,34.0,31.5,30.34,NW,314,3.6,3.6,90,0.00,,---,0.00,13.58,VWS V14.01,2013-01-20 16:23:00,
2013-01-20 08:28:00,34.2,31.6,30.34,WNW,291,3.8,3.8,90,0.00,,---,0.00,7.55,VWS V14.01,2013-01-20 16:28:00,
2013-01-20 08:33:00,34.2,31.6,30.34,West,279,4.0,4.0,90,0.00,,---,0.00,21.60,VWS V14.01,2013-01-20 16:33:00,
2013-01-20 08:38:00,34.2,31.6,30.34,NNW,330,2.0,2.0,90,0.00,,---,0.00,9.46,VWS V14.01,2013-01-20 16:38:00,
2013-01-20 08:43:00,34.2,31.6,30.34,WNW,291,3.6,4.7,90,0.00,,---,0.00,10.07,VWS V14.01,2013-01-20 16:43:00,
2013-01-20 08:48:00,34.3,31.8,30.34,WNW,294,5.6,5.6,90,0.00,,---,0.00,16.48,VWS V14.01,2013-01-20 16:48:00,
2013-01-20 08:53:00,34.5,32.0,30.35,NW,326,4.5,5.1,90,0.00,,---,0.00,19.46,VWS V14.01,2013-01-20 16:53:00,
2013-01-20 08:58:00,34.5,32.0,30.35,NNW,344,2.7,2.7,90,0.00,,---,0.00,24.50,VWS V14.01,2013-01-20 16:58:00,
2013-01-20 09:03:00,34.7,32.2,30.35,WNW,295,4.3,4.3,90,0.00,,---,0.00,30.91,VWS V14.01,2013-01-20 17:03:00,
2013-01-20 09:08:00,34.7,32.2,30.35,WNW,302,5.8,5.8,90,0.00,,---,0.00,24.42,VWS V14.01,2013-01-20 17:08:00,
2013-01-20 09:13:00,34.7,32.2,30.35,WNW,300,3.6,3.6,90,0.00,,---,0.00,32.43,VWS V14.01,2013-01-20 17:13:00,
2013-01-20 09:18:00,34.7,32.2,30.35,WNW,296,4.5,4.5,90,0.00,,---,0.00,28.08,VWS V14.01,2013-01-20 17:18:00,
2013-01-20 09:23:00,34.9,32.4,30.35,NNW,334,3.4,3.4,90,0.00,,---,0.00,38.84,VWS V14.01,2013-01-20 17:23:00,
2013-01-20 09:28:00,34.7,32.2,30.35,WNW,296,4.7,4.7,90,0.00,,---,0.00,45.02,VWS V14.01,2013-01-20 17:28:00,
2013-01-20 09:33:00,35.1,32.6,30.35,NW,305,3.6,3.6,90,0.00,,---,0.00,57.31,VWS V14.01,2013-01-20 17:33:00,
2013-01-20 09:38:00,35.1,32.6,30.35,NW,304,4.0,4.0,91,0.00,,---,0.00,57.08,VWS V14.01,2013-01-20 17:38:00,
2013-01-20 09:43:00,35.2,32.8,30.35,NW,315,3.1,3.1,91,0.00,,---,0.00,61.51,VWS V14.01,2013-01-20 17:43:00,
2013-01-20 09:48:00,35.4,32.9,30.35,NNW,332,3.6,6.3,90,0.00,,---,0.00,64.10,VWS V14.01,2013-01-20 17:48:00,
2013-01-20 09:53:00,35.2,32.7,30.35,WNW,299,6.5,6.5,90,0.00,,---,0.00,48.61,VWS V14.01,2013-01-20 17:53:00,
2013-01-20 09:58:00,35.1,32.6,30.35,NW,326,3.1,3.1,91,0.00,,---,0.00,45.48,VWS V14.01,2013-01-20 17:58:00,
2013-01-20 10:03:00,35.1,32.6,30.35,NW,318,4.0,4.0,91,0.00,,---,0.00,59.14,VWS V14.01,2013-01-20 18:03:00,
2013-01-20 10:08:00,35.2,32.8,30.35,NW,311,5.8,5.8,91,0.00,,---,0.00,56.32,VWS V14.01,2013-01-20 18:08:00,
2013-01-20 10:13:00,35.2,32.8,30.35,NW,309,3.8,3.8,91,0.00,,---,0.00,70.44,VWS V14.01,2013-01-20 18:13:00,
2013-01-20 10:18:00,35.2,32.7,30.35,NW,314,3.8,3.8,90,0.00,,---,0.00,70.67,VWS V14.01,2013-01-20 18:18:00,
2013-01-20 10:23:00,35.2,32.8,30.35,NW,314,2.9,2.9,91,0.00,,---,0.00,78.30,VWS V14.01,2013-01-20 18:23:00,
2013-01-20 10:28:00,35.4,33.0,30.35,NNW,327,2.9,2.9,91,0.00,,---,0.00,83.87,VWS V14.01,2013-01-20 18:28:00,
2013-01-20 10:33:00,35.4,33.0,30.35,NW,307,4.3,4.3,91,0.00,,---,0.00,70.89,VWS V14.01,2013-01-20 18:33:00,
2013-01-20 10:38:00,35.6,33.2,30.35,NNW,334,2.2,2.2,91,0.00,,---,0.00,77.92,VWS V14.01,2013-01-20 18:38:00,
2013-01-20 10:43:00,35.6,33.1,30.35,NW,306,3.8,3.8,91,0.00,,---,0.00,84.63,VWS V14.01,2013-01-20 18:43:00,
2013-01-20 10:48:00,35.8,33.3,30.35,NNW,341,3.1,3.1,91,0.00,,---,0.00,75.32,VWS V14.01,2013-01-20 18:48:00,
2013-01-20 10:53:00,35.8,33.3,30.34,WNW,290,2.0,2.0,91,0.00,,---,0.00,79.14,VWS V14.01,2013-01-20 18:53:00,
2013-01-20 10:58:00,36.1,33.7,30.34,East,96,0.7,0.7,91,0.00,,---,0.00,91.58,VWS V14.01,2013-01-20 18:58:00,
2013-01-20 11:03:00,36.7,34.2,30.34,NNW,337,1.6,1.6,91,0.00,,---,0.00,65.40,VWS V14.01,2013-01-20 19:03:00,
2013-01-20 11:08:00,36.3,33.8,30.34,NNW,338,1.6,3.1,90,0.00,,---,0.00,72.42,VWS V14.01,2013-01-20 19:08:00,
2013-01-20 11:13:00,36.3,33.8,30.34,NW,320,4.9,4.9,90,0.00,,---,0.00,87.30,VWS V14.01,2013-01-20 19:13:00,
2013-01-20 11:18:00,36.3,33.8,30.34,NNW,341,2.9,2.9,90,0.00,,---,0.00,76.54,VWS V14.01,2013-01-20 19:18:00,
2013-01-20 11:23:00,36.7,34.1,30.34,NW,322,3.6,3.6,90,0.00,,---,0.00,88.06,VWS V14.01,2013-01-20 19:23:00,
2013-01-20 11:28:00,36.7,34.1,30.34,NW,321,1.6,1.6,90,0.00,,---,0.00,88.14,VWS V14.01,2013-01-20 19:28:00,
2013-01-20 11:33:00,36.5,33.9,30.33,NW,322,1.3,1.3,90,0.00,,---,0.00,94.09,VWS V14.01,2013-01-20 19:33:00,
2013-01-20 11:38:00,36.7,34.0,30.33,WNW,289,2.9,2.9,90,0.00,,---,0.00,96.99,VWS V14.01,2013-01-20 19:38:00,
2013-01-20 11:43:00,36.7,34.0,30.33,NW,310,4.7,4.7,90,0.00,,---,0.00,110.20,VWS V14.01,2013-01-20 19:43:00,
2013-01-20 11:48:00,37.0,34.3,30.33,WNW,302,4.0,4.0,90,0.00,,---,0.00,115.54,VWS V14.01,2013-01-20 19:48:00,
2013-01-20 11:53:00,36.9,34.0,30.33,NW,315,1.6,2.2,89,0.00,,---,0.00,126.83,VWS V14.01,2013-01-20 19:53:00,
2013-01-20 11:58:00,37.2,34.3,30.32,NNW,330,1.6,2.2,89,0.00,,---,0.00,125.00,VWS V14.01,2013-01-20 19:58:00,
2013-01-20 12:03:00,37.2,34.2,30.32,WNW,303,2.2,2.2,89,0.00,,---,0.00,178.04,VWS V14.01,2013-01-20 20:03:00,
2013-01-20 12:08:00,37.2,34.1,30.32,NW,313,2.0,2.5,88,0.00,,---,0.00,157.66,VWS V14.01,2013-01-20 20:08:00,
2013-01-20 12:13:00,37.4,34.0,30.31,NW,315,5.1,5.1,87,0.00,,---,0.00,148.73,VWS V14.01,2013-01-20 20:13:00,
2013-01-20 12:18:00,37.2,33.6,30.31,NW,312,1.8,1.8,87,0.00,,---,0.00,110.35,VWS V14.01,2013-01-20 20:18:00,
2013-01-20 12:23:00,38.3,34.5,30.31,NW,325,5.4,5.4,86,0.00,,---,0.00,213.98,VWS V14.01,2013-01-20 20:23:00,
2013-01-20 12:28:00,38.5,34.2,30.31,NNW,329,3.1,3.1,84,0.00,,---,0.00,237.56,VWS V14.01,2013-01-20 20:28:00,
2013-01-20 12:33:00,39.4,34.6,30.31,NNW,336,3.1,3.4,83,0.00,,---,0.00,264.96,VWS V14.01,2013-01-20 20:33:00,
2013-01-20 12:38:00,40.3,34.5,30.31,NNW,329,0.7,2.0,80,0.00,,---,0.00,139.80,VWS V14.01,2013-01-20 20:38:00,
2013-01-20 12:43:00,40.3,33.8,30.30,ENE,69,2.0,2.0,78,0.00,,---,0.00,166.67,VWS V14.01,2013-01-20 20:43:00,
2013-01-20 12:48:00,40.3,33.9,30.30,NW,319,1.8,3.1,78,0.00,,---,0.00,169.72,VWS V14.01,2013-01-20 20:48:00,
2013-01-20 12:53:00,40.6,34.5,30.30,East,99,1.6,1.6,78,0.00,,---,0.00,131.64,VWS V14.01,2013-01-20 20:53:00,
2013-01-20 12:58:00,40.3,34.1,30.30,South,189,4.7,4.7,78,0.00,,---,0.00,126.30,VWS V14.01,2013-01-20 20:58:00,
2013-01-20 13:03:00,40.3,34.4,30.29,SW,225,6.5,6.5,79,0.00,,---,0.00,111.11,VWS V14.01,2013-01-20 21:03:00,
2013-01-20 13:08:00,40.3,34.9,30.29,WNW,294,2.7,2.7,81,0.00,,---,0.00,98.60,VWS V14.01,2013-01-20 21:08:00,
2013-01-20 13:13:00,40.1,34.5,30.29,SW,215,3.8,3.8,80,0.00,,---,0.00,111.95,VWS V14.01,2013-01-20 21:13:00,
2013-01-20 13:18:00,40.3,34.9,30.29,SSW,195,2.5,2.5,81,0.00,,---,0.00,150.11,VWS V14.01,2013-01-20 21:18:00,
2013-01-20 13:23:00,40.5,34.7,30.29,SE,142,1.1,2.9,80,0.00,,---,0.00,126.22,VWS V14.01,2013-01-20 21:23:00,
2013-01-20 13:28:00,39.9,34.2,30.29,SW,231,2.7,4.9,80,0.00,,---,0.00,118.67,VWS V14.01,2013-01-20 21:28:00,
2013-01-20 13:33:00,39.6,34.2,30.29,WSW,250,1.3,4.3,81,0.00,,---,0.00,131.79,VWS V14.01,2013-01-20 21:33:00,
2013-01-20 13:38:00,39.6,34.3,30.28,South,185,2.0,2.0,81,0.00,,---,0.00,124.77,VWS V14.01,2013-01-20 21:38:00,
2013-01-20 13:43:00,40.1,34.9,30.28,ENE,76,2.5,2.5,81,0.00,,---,0.00,119.58,VWS V14.01,2013-01-20 21:43:00,
2013-01-20 13:48:00,40.3,34.7,30.28,NW,306,2.2,2.2,80,0.00,,---,0.00,107.07,VWS V14.01,2013-01-20 21:48:00,
2013-01-20 13:53:00,40.5,34.4,30.28,WNW,286,2.9,3.4,79,0.00,,---,0.00,210.24,VWS V14.01,2013-01-20 21:53:00,
2013-01-20 13:58:00,40.5,34.1,30.28,WNW,288,3.4,3.6,78,0.00,,---,0.00,202.92,VWS V14.01,2013-01-20 21:58:00,
2013-01-20 14:03:00,40.3,33.5,30.28,WNW,291,3.6,3.6,77,0.00,,---,0.00,183.76,VWS V14.01,2013-01-20 22:03:00,
2013-01-20 14:08:00,41.0,34.3,30.28,NNW,328,1.8,1.8,77,0.00,,---,0.00,149.65,VWS V14.01,2013-01-20 22:08:00,
2013-01-20 14:13:00,41.4,34.0,30.27,NW,324,3.8,3.8,75,0.00,,---,0.00,160.18,VWS V14.01,2013-01-20 22:13:00,
2013-01-20 14:18:00,40.5,33.4,30.27,North,349,2.7,4.0,76,0.00,,---,0.00,140.49,VWS V14.01,2013-01-20 22:18:00,
2013-01-20 14:23:00,41.4,34.1,30.27,NNW,337,1.6,1.6,75,0.00,,---,0.00,143.24,VWS V14.01,2013-01-20 22:23:00,
2013-01-20 14:28:00,41.9,34.2,30.27,NNW,327,3.4,3.4,74,0.00,,---,0.00,136.29,VWS V14.01,2013-01-20 22:28:00,
2013-01-20 14:33:00,41.4,33.7,30.27,NW,316,3.8,3.8,74,0.00,,---,0.00,123.78,VWS V14.01,2013-01-20 22:33:00,
2013-01-20 14:38:00,41.7,34.2,30.27,NNW,341,1.6,2.9,74,0.00,,---,0.00,126.76,VWS V14.01,2013-01-20 22:38:00,
2013-01-20 14:43:00,41.5,33.9,30.27,NNW,334,3.4,3.4,74,0.00,,---,0.00,112.94,VWS V14.01,2013-01-20 22:43:00,
2013-01-20 14:48:00,41.5,33.8,30.27,NNW,341,2.2,3.4,74,0.00,,---,0.00,115.38,VWS V14.01,2013-01-20 22:48:00,
2013-01-20 14:53:00,42.3,34.5,30.27,NNW,327,2.5,2.5,74,0.00,,---,0.00,105.92,VWS V14.01,2013-01-20 22:53:00,
2013-01-20 14:58:00,41.9,34.0,30.27,North,5,1.3,2.7,73,0.00,,---,0.00,105.31,VWS V14.01,2013-01-20 22:58:00,
2013-01-20 15:03:00,42.4,34.3,30.27,NW,323,1.6,1.6,73,0.00,,---,0.00,93.48,VWS V14.01,2013-01-20 23:03:00,
2013-01-20 15:08:00,42.4,34.1,30.27,NW,312,3.1,3.1,72,0.00,,---,0.00,93.33,VWS V14.01,2013-01-20 23:08:00,
2013-01-20 15:13:00,42.6,34.4,30.27,North,5,1.3,2.2,72,0.00,,---,0.00,88.29,VWS V14.01,2013-01-20 23:13:00,
2013-01-20 15:18:00,42.8,34.3,30.27,North,354,3.1,3.1,72,0.00,,---,0.00,83.03,VWS V14.01,2013-01-20 23:18:00,
2013-01-20 15:23:00,42.8,34.1,30.27,North,352,1.3,2.2,71,0.00,,---,0.00,78.30,VWS V14.01,2013-01-20 23:23:00,
2013-01-20 15:28:00,42.4,33.9,30.27,NNW,332,0.9,2.9,72,0.00,,---,0.00,74.86,VWS V14.01,2013-01-20 23:28:00,
2013-01-20 15:33:00,42.8,34.5,30.27,NE,37,0.4,0.7,72,0.00,,---,0.00,66.39,VWS V14.01,2013-01-20 23:33:00,
2013-01-20 15:38:00,42.8,34.2,30.27,NNW,341,2.2,2.2,71,0.00,,---,0.00,66.54,VWS V14.01,2013-01-20 23:38:00,
2013-01-20 15:43:00,43.5,34.6,30.27,NNE,26,1.6,1.6,70,0.00,,---,0.00,63.72,VWS V14.01,2013-01-20 23:43:00,
2013-01-20 15:48:00,43.0,34.2,30.27,WSW,253,0.9,0.9,71,0.00,,---,0.00,49.76,VWS V14.01,2013-01-20 23:48:00,
2013-01-20 15:53:00,43.2,34.3,30.27,East,87,3.6,3.6,71,0.00,,---,0.00,55.71,VWS V14.01,2013-01-20 23:53:00,
2013-01-20 15:58:00,43.5,34.9,30.26,SSW,200,0.9,1.6,71,0.00,,---,0.00,50.98,VWS V14.01,2013-01-20 23:58:00,
2013-01-20 16:03:00,43.3,34.5,30.26,SW,214,0.7,2.2,71,0.00,,---,0.00,36.48,VWS V14.01,2013-01-21 00:03:00,
2013-01-20 16:08:00,43.0,34.5,30.26,South,179,2.7,2.7,72,0.00,,---,0.00,28.62,VWS V14.01,2013-01-21 00:08:00,
2013-01-20 16:13:00,42.4,34.3,30.27,SSE,161,3.4,3.4,73,0.00,,---,0.00,26.71,VWS V14.01,2013-01-21 00:13:00,
2013-01-20 16:18:00,42.1,34.4,30.26,SSW,197,4.0,4.0,74,0.00,,---,0.00,28.85,VWS V14.01,2013-01-21 00:18:00,
2013-01-20 16:23:00,42.1,34.5,30.26,South,173,2.7,2.7,74,0.00,,---,0.00,24.50,VWS V14.01,2013-01-21 00:23:00,
2013-01-20 16:28:00,42.3,34.8,30.26,NW,319,0.9,0.9,75,0.00,,---,0.00,15.95,VWS V14.01,2013-01-21 00:28:00,
2013-01-20 16:33:00,41.7,34.0,30.26,West,263,5.4,5.6,74,0.00,,---,0.00,17.02,VWS V14.01,2013-01-21 00:33:00,
2013-01-20 16:38:00,40.6,33.7,30.26,West,274,3.6,3.8,76,0.00,,---,0.00,16.41,VWS V14.01,2013-01-21 00:38:00,
2013-01-20 16:43:00,40.5,33.9,30.26,West,274,2.2,2.2,77,0.00,,---,0.00,2.75,VWS V14.01,2013-01-21 00:43:00,
2013-01-20 16:48:00,40.3,33.9,30.26,West,270,4.5,4.5,78,0.00,,---,0.00,0.00,VWS V14.01,2013-01-21 00:48:00,
2013-01-20 16:53:00,39.9,33.8,30.26,West,276,2.9,4.0,79,0.00,,---,0.00,1.07,VWS V14.01,2013-01-21 00:53:00,
2013-01-20 16:58:00,39.7,33.8,30.26,West,263,3.1,3.1,79,0.00,,---,0.00,3.28,VWS V14.01,2013-01-21 00:58:00,
2013-01-20 17:03:00,39.6,33.8,30.26,WSW,250,3.6,3.6,80,0.00,,---,0.00,0.00,VWS V14.01,2013-01-21 01:03:00,
2013-01-20 17:08:00,39.6,33.9,30.26,WSW,257,3.1,3.4,80,0.00,,---,0.00,3.28,VWS V14.01,2013-01-21 01:08:00,
2013-01-20 17:13:00,39.6,34.0,30.26,WSW,256,3.8,3.8,80,0.00,,---,0.00,0.00,VWS V14.01,2013-01-21 01:13:00,
2013-01-20 17:18:00,39.6,34.0,30.26,WSW,257,2.7,3.1,80,0.00,,---,0.00,2.06,VWS V14.01,2013-01-21 01:18:00,
2013-01-20 17:23:00,39.7,34.2,30.25,West,268,2.9,3.6,80,0.00,,---,0.00,0.00,VWS V14.01,2013-01-21 01:23:00,
2013-01-20 17:28:00,39.6,34.0,30.25,West,276,3.1,3.1,80,0.00,,---,0.00,2.52,VWS V14.01,2013-01-21 01:28:00,
2013-01-20 17:33:00,39.4,33.9,30.25,West,276,4.0,4.0,80,0.00,,---,0.00,0.31,VWS V14.01,2013-01-21 01:33:00,
2013-01-20 17:38:00,39.2,33.8,30.25,West,264,4.5,4.5,81,0.00,,---,0.00,0.31,VWS V14.01,2013-01-21 01:38:00,
2013-01-20 17:43:00,39.0,33.8,30.25,West,262,4.3,4.7,82,0.00,,---,0.00,2.75,VWS V14.01,2013-01-21 01:43:00,
2013-01-20 17:48:00,38.8,33.8,30.24,WSW,257,4.3,4.3,82,0.00,,---,0.00,0.00,VWS V14.01,2013-01-21 01:48:00,
2013-01-20 17:53:00,38.8,33.9,30.24,WSW,258,4.0,4.3,82,0.00,,---,0.00,0.00,VWS V14.01,2013-01-21 01:53:00,
2013-01-20 17:58:00,38.8,33.9,30.24,WSW,258,4.0,4.0,82,0.00,,---,0.00,0.00,VWS V14.01,2013-01-21 01:58:00,
2013-01-20 18:03:00,38.8,34.0,30.24,West,265,3.8,3.8,82,0.00,,---,0.00,0.00,VWS V14.01,2013-01-21 02:03:00,
2013-01-20 18:08:00,38.7,33.9,30.24,West,270,4.0,4.3,83,0.00,,---,0.00,1.60,VWS V14.01,2013-01-21 02:08:00,
2013-01-20 18:13:00,38.5,33.8,30.24,West,275,4.0,4.0,83,0.00,,---,0.00,0.00,VWS V14.01,2013-01-21 02:13:00,
2013-01-20 18:18:00,38.5,33.9,30.24,WSW,254,4.3,4.3,83,0.00,,---,0.00,2.98,VWS V14.01,2013-01-21 02:18:00,
2013-01-20 18:23:00,38.3,33.8,30.24,West,262,4.0,4.0,84,0.00,,---,0.00,2.14,VWS V14.01,2013-01-21 02:23:00,
2013-01-20 18:28:00,38.1,33.7,30.24,WSW,254,3.4,4.0,84,0.00,,---,0.00,0.00,VWS V14.01,2013-01-21 02:28:00,
2013-01-20 18:33:00,38.1,33.8,30.24,WSW,258,3.8,3.8,84,0.00,,---,0.00,0.00,VWS V14.01,2013-01-21 02:33:00,
2013-01-20 18:38:00,37.9,33.7,30.24,WSW,258,4.7,4.7,84,0.00,,---,0.00,1.68,VWS V14.01,2013-01-21 02:38:00,
2013-01-20 18:43:00,37.9,33.7,30.24,WSW,252,3.8,4.7,84,0.00,,---,0.00,0.00,VWS V14.01,2013-01-21 02:43:00,
2013-01-20 18:48:00,37.9,33.7,30.24,WSW,251,3.8,4.5,84,0.00,,---,0.00,1.30,VWS V14.01,2013-01-21 02:48:00,
2013-01-20 18:53:00,37.8,33.5,30.24,WSW,257,4.3,4.9,84,0.00,,---,0.00,0.00,VWS V14.01,2013-01-21 02:53:00,
2013-01-20 18:58:00,37.6,33.4,30.24,WSW,253,4.3,4.7,85,0.00,,---,0.00,0.00,VWS V14.01,2013-01-21 02:58:00,
2013-01-20 19:03:00,37.6,33.4,30.24,West,261,3.8,4.0,85,0.00,,---,0.00,1.07,VWS V14.01,2013-01-21 03:03:00,
2013-01-20 19:08:00,37.4,33.2,30.24,West,260,4.3,4.3,85,0.00,,---,0.00,1.83,VWS V14.01,2013-01-21 03:08:00,
2013-01-20 19:13:00,37.2,33.1,30.24,West,270,4.5,4.9,85,0.00,,---,0.00,3.89,VWS V14.01,2013-01-21 03:13:00,
2013-01-20 19:18:00,37.0,33.0,30.24,West,280,3.4,4.0,85,0.00,,---,0.00,0.00,VWS V14.01,2013-01-21 03:18:00,
2013-01-20 19:23:00,36.9,32.9,30.23,West,276,4.5,4.5,85,0.00,,---,0.00,0.00,VWS V14.01,2013-01-21 03:23:00,
2013-01-20 19:28:00,37.0,33.1,30.23,West,276,4.3,4.3,86,0.00,,---,0.00,2.52,VWS V14.01,2013-01-21 03:28:00,
2013-01-20 19:33:00,36.7,32.8,30.24,West,276,4.5,4.5,86,0.00,,---,0.00,0.00,VWS V14.01,2013-01-21 03:33:00,
2013-01-20 19:38:00,36.9,33.1,30.24,WNW,289,3.4,4.5,86,0.00,,---,0.00,0.53,VWS V14.01,2013-01-21 03:38:00,
2013-01-20 19:43:00,36.7,32.9,30.23,NW,304,2.7,3.1,86,0.00,,---,0.00,0.00,VWS V14.01,2013-01-21 03:43:00,
2013-01-20 19:48:00,36.7,32.9,30.23,NW,311,2.0,2.0,86,0.00,,---,0.00,0.00,VWS V14.01,2013-01-21 03:48:00,
2013-01-20 19:53:00,36.7,32.9,30.23,NNW,329,1.6,1.6,86,0.00,,---,0.00,0.00,VWS V14.01,2013-01-21 03:53:00,
2013-01-20 19:58:00,36.9,33.1,30.23,NW,323,1.3,2.7,86,0.00,,---,0.00,0.00,VWS V14.01,2013-01-21 03:58:00,
2013-01-20 20:03:00,36.9,33.1,30.23,NNW,342,2.2,2.2,86,0.00,,---,0.00,0.31,VWS V14.01,2013-01-21 04:03:00,
2013-01-20 20:08:00,37.0,33.3,30.24,NW,323,2.2,2.2,86,0.00,,---,0.00,0.08,VWS V14.01,2013-01-21 04:08:00,
2013-01-20 20:13:00,37.2,33.5,30.24,North,357,2.0,2.0,86,0.00,,---,0.00,0.00,VWS V14.01,2013-01-21 04:13:00,
2013-01-20 20:18:00,37.4,33.8,30.24,NNW,345,2.0,2.5,87,0.00,,---,0.00,0.00,VWS V14.01,2013-01-21 04:18:00,
2013-01-20 20:23:00,37.6,34.0,30.24,NW,326,2.5,2.5,87,0.00,,---,0.00,3.05,VWS V14.01,2013-01-21 04:23:00,
2013-01-20 20:28:00,37.8,34.3,30.24,NNW,328,2.5,2.5,87,0.00,,---,0.00,0.00,VWS V14.01,2013-01-21 04:28:00,
2013-01-20 20:33:00,37.8,34.4,30.24,NNW,334,1.8,1.8,87,0.00,,---,0.00,0.00,VWS V14.01,2013-01-21 04:33:00,
2013-01-20 20:38:00,37.9,34.6,30.24,WNW,286,1.3,1.3,88,0.00,,---,0.00,0.00,VWS V14.01,2013-01-21 04:38:00,
2013-01-20 20:43:00,37.9,34.7,30.24,NW,313,2.5,2.5,88,0.00,,---,0.00,0.00,VWS V14.01,2013-01-21 04:43:00,
2013-01-20 20:48:00,38.1,34.9,30.24,NW,323,0.9,0.9,88,0.00,,---,0.00,2.06,VWS V14.01,2013-01-21 04:48:00,
2013-01-20 20:53:00,37.9,34.7,30.24,North,350,1.6,1.6,88,0.00,,---,0.00,0.00,VWS V14.01,2013-01-21 04:53:00,
2013-01-20 20:58:00,38.1,35.0,30.24,NW,319,0.9,0.9,88,0.00,,---,0.00,0.38,VWS V14.01,2013-01-21 04:58:00,
2013-01-20 21:00:00,38.1,35.0,30.24,WNW,299,0.9,1.1,88,0.00,,---,0.00,4.35,VWS V14.01,2013-01-21 05:00:00,
2013-01-20 21:01:00,38.1,35.0,30.24,NNW,338,0.7,1.6,88,0.00,,---,0.00,0.00,VWS V14.01,2013-01-21 05:01:00,
2013-01-20 21:02:00,38.1,35.0,30.24,NNW,338,0.7,1.6,88,0.00,,---,0.00,0.00,VWS V14.01,2013-01-21 05:02:00,
2013-01-20 21:07:00,38.1,35.0,30.24,WNW,289,1.3,1.3,88,0.00,,---,0.00,0.00,VWS V14.01,2013-01-21 05:07:00,
2013-01-20 21:12:00,38.3,35.2,30.24,NW,325,0.9,0.9,89,0.00,,---,0.00,0.00,VWS V14.01,2013-01-21 05:12:00,
2013-01-20 21:17:00,38.3,35.2,30.24,NW,310,2.2,2.2,89,0.00,,---,0.00,0.00,VWS V14.01,2013-01-21 05:17:00,
2013-01-20 21:22:00,38.3,35.3,30.24,West,261,1.1,1.1,89,0.00,,---,0.00,0.00,VWS V14.01,2013-01-21 05:22:00,
2013-01-20 21:27:00,38.3,35.3,30.24,North,349,1.1,2.2,89,0.00,,---,0.00,0.00,VWS V14.01,2013-01-21 05:27:00,
2013-01-20 21:32:00,38.1,35.1,30.24,SW,235,0.4,0.4,89,0.00,,---,0.00,0.38,VWS V14.01,2013-01-21 05:32:00,
2013-01-20 21:37:00,38.1,35.1,30.24,NNW,333,2.7,2.7,89,0.00,,---,0.00,0.00,VWS V14.01,2013-01-21 05:37:00,
2013-01-20 21:42:00,38.1,35.1,30.24,NW,312,4.0,4.0,89,0.00,,---,0.00,0.00,VWS V14.01,2013-01-21 05:42:00,
2013-01-20 21:47:00,37.9,34.9,30.24,WNW,298,3.4,3.6,89,0.00,,---,0.00,0.00,VWS V14.01,2013-01-21 05:47:00,
2013-01-20 21:52:00,37.8,34.8,30.24,NW,324,2.9,2.9,89,0.00,,---,0.00,0.00,VWS V14.01,2013-01-21 05:52:00,
2013-01-20 21:57:00,37.6,34.5,30.24,NW,304,4.9,4.9,89,0.00,,---,0.00,0.00,VWS V14.01,2013-01-21 05:57:00,
2013-01-20 22:02:00,37.4,34.4,30.24,NW,309,4.9,4.9,89,0.00,,---,0.00,2.52,VWS V14.01,2013-01-21 06:02:00,
2013-01-20 22:07:00,37.2,34.2,30.24,NW,314,2.9,3.4,89,0.00,,---,0.00,0.00,VWS V14.01,2013-01-21 06:07:00,
2013-01-20 22:13:00,37.0,34.1,30.24,WNW,299,3.4,3.4,89,0.00,,---,0.00,0.00,VWS V14.01,2013-01-21 06:13:00,
2013-01-20 22:18:00,37.0,34.1,30.24,NW,314,3.6,3.8,89,0.00,,---,0.00,0.00,VWS V14.01,2013-01-21 06:18:00,
2013-01-20 22:23:00,36.9,33.9,30.24,WNW,287,3.6,3.8,89,0.00,,---,0.00,1.60,VWS V14.01,2013-01-21 06:23:00,
2013-01-20 22:28:00,36.7,33.8,30.24,NW,312,3.1,5.6,89,0.00,,---,0.00,1.22,VWS V14.01,2013-01-21 06:28:00,
2013-01-20 22:33:00,36.5,33.6,30.24,NW,311,3.8,3.8,89,0.00,,---,0.00,0.00,VWS V14.01,2013-01-21 06:33:00,
2013-01-20 22:38:00,36.3,33.5,30.24,NNW,332,2.2,2.5,89,0.00,,---,0.00,5.27,VWS V14.01,2013-01-21 06:38:00,
2013-01-20 22:43:00,36.1,33.2,30.24,NW,312,2.7,3.4,89,0.00,,---,0.00,0.00,VWS V14.01,2013-01-21 06:43:00,
2013-01-20 22:48:00,36.3,33.5,30.23,West,279,2.7,2.7,89,0.00,,---,0.00,0.00,VWS V14.01,2013-01-21 06:48:00,
2013-01-20 22:53:00,36.3,33.5,30.23,NW,320,2.5,4.0,89,0.00,,---,0.00,0.00,VWS V14.01,2013-01-21 06:53:00,
2013-01-20 22:58:00,36.0,33.1,30.23,NW,306,3.4,3.8,89,0.00,,---,0.00,0.00,VWS V14.01,2013-01-21 06:58:00,
2013-01-20 23:03:00,35.8,33.0,30.23,NNW,328,1.3,1.3,89,0.00,,---,0.00,0.00,VWS V14.01,2013-01-21 07:03:00,
2013-01-20 23:08:00,36.0,33.2,30.23,NW,306,4.0,4.0,90,0.00,,---,0.00,0.00,VWS V14.01,2013-01-21 07:08:00,
2013-01-20 23:13:00,35.8,33.0,30.23,NW,317,2.7,4.0,90,0.00,,---,0.00,2.37,VWS V14.01,2013-01-21 07:13:00,
2013-01-20 23:18:00,35.8,33.0,30.23,NNW,329,1.1,1.8,90,0.00,,---,0.00,0.15,VWS V14.01,2013-01-21 07:18:00,
2013-01-20 23:23:00,35.8,33.0,30.24,NNW,336,2.7,2.7,90,0.00,,---,0.00,0.00,VWS V14.01,2013-01-21 07:23:00,
2013-01-20 23:28:00,35.8,33.0,30.24,NW,322,0.9,2.5,90,0.00,,---,0.00,0.00,VWS V14.01,2013-01-21 07:28:00,
2013-01-20 23:33:00,36.0,33.2,30.24,NNE,17,1.8,2.5,90,0.00,,---,0.00,1.37,VWS V14.01,2013-01-21 07:33:00,
2013-01-20 23:38:00,36.0,33.2,30.24,NNW,335,2.2,2.7,90,0.00,,---,0.00,0.23,VWS V14.01,2013-01-21 07:38:00,
2013-01-20 23:43:00,36.0,33.2,30.24,NW,315,2.0,2.9,90,0.00,,---,0.00,2.75,VWS V14.01,2013-01-21 07:43:00,
2013-01-20 23:48:00,36.0,33.2,30.23,North,351,2.0,3.1,90,0.00,,---,0.00,0.00,VWS V14.01,2013-01-21 07:48:00,
2013-01-20 23:53:00,36.1,33.4,30.23,NNW,327,2.5,2.5,90,0.00,,---,0.00,0.00,VWS V14.01,2013-01-21 07:53:00,
2013-01-20 23:58:00,36.1,33.4,30.23,NNW,348,2.0,2.0,90,0.00,,---,0.00,0.00,VWS V14.01,2013-01-21 07:58:00,